sensor_id;sensor_type;location;lat;lon;timestamp;temperature;humidity
36458;DHT22;22480;50.546;12.292;2022-11-20T00:00:56;-9.20;99.90
36458;DHT22;22480;50.546;12.292;2022-11-20T00:03:22;-9.10;99.90
36458;DHT22;22480;50.546;12.292;2022-11-20T00:05:48;-9.00;99.90
36458;DHT22;22480;50.546;12.292;2022-11-20T00:08:13;-9.00;99.90
36458;DHT22;22480;50.546;12.292;2022-11-20T00:10:39;-8.90;99.90
36458;DHT22;22480;50.546;12.292;2022-11-20T00:13:06;-8.80;99.90
36458;DHT22;22480;50.546;12.292;2022-11-20T00:15:32;-8.80;99.90
36458;DHT22;22480;50.546;12.292;2022-11-20T00:17:58;-8.80;99.90
36458;DHT22;22480;50.546;12.292;2022-11-20T00:20:24;-8.80;99.90
36458;DHT22;22480;50.546;12.292;2022-11-20T00:22:50;-8.90;99.90
36458;DHT22;22480;50.546;12.292;2022-11-20T00:25:16;-9.00;99.90
36458;DHT22;22480;50.546;12.292;2022-11-20T00:27:42;-9.00;99.90
36458;DHT22;22480;50.546;12.292;2022-11-20T00:30:08;-9.00;99.90
36458;DHT22;22480;50.546;12.292;2022-11-20T00:32:34;-9.10;99.90
36458;DHT22;22480;50.546;12.292;2022-11-20T00:35:00;-9.20;99.90
36458;DHT22;22480;50.546;12.292;2022-11-20T00:37:26;-9.30;99.90
36458;DHT22;22480;50.546;12.292;2022-11-20T00:39:52;-9.40;99.90
36458;DHT22;22480;50.546;12.292;2022-11-20T00:42:17;-9.50;99.90
36458;DHT22;22480;50.546;12.292;2022-11-20T00:44:43;-9.60;99.90
36458;DHT22;22480;50.546;12.292;2022-11-20T00:47:09;-9.60;99.90
36458;DHT22;22480;50.546;12.292;2022-11-20T00:49:35;-9.70;99.90
36458;DHT22;22480;50.546;12.292;2022-11-20T00:52:00;-9.70;99.90
36458;DHT22;22480;50.546;12.292;2022-11-20T00:54:26;-9.70;99.90
36458;DHT22;22480;50.546;12.292;2022-11-20T00:56:55;-9.80;99.90
36458;DHT22;22480;50.546;12.292;2022-11-20T00:59:20;-9.80;99.90
36458;DHT22;22480;50.546;12.292;2022-11-20T01:01:46;-9.70;99.90
36458;DHT22;22480;50.546;12.292;2022-11-20T01:04:12;-9.60;99.90
36458;DHT22;22480;50.546;12.292;2022-11-20T01:06:38;-9.70;99.90
36458;DHT22;22480;50.546;12.292;2022-11-20T01:09:07;-9.80;99.90
36458;DHT22;22480;50.546;12.292;2022-11-20T01:11:35;-9.90;99.90
36458;DHT22;22480;50.546;12.292;2022-11-20T01:14:04;-9.90;99.90
36458;DHT22;22480;50.546;12.292;2022-11-20T01:16:35;-9.90;99.90
36458;DHT22;22480;50.546;12.292;2022-11-20T01:19:04;-9.90;99.90
36458;DHT22;22480;50.546;12.292;2022-11-20T01:21:32;-9.70;99.90
36458;DHT22;22480;50.546;12.292;2022-11-20T01:23:59;-9.40;99.90
36458;DHT22;22480;50.546;12.292;2022-11-20T01:26:27;-9.10;99.90
36458;DHT22;22480;50.546;12.292;2022-11-20T01:28:54;-8.90;99.90
36458;DHT22;22480;50.546;12.292;2022-11-20T01:31:27;-8.80;99.90
36458;DHT22;22480;50.546;12.292;2022-11-20T01:33:55;-8.90;99.90
36458;DHT22;22480;50.546;12.292;2022-11-20T01:36:23;-8.90;99.90
36458;DHT22;22480;50.546;12.292;2022-11-20T01:38:57;-8.90;99.90
36458;DHT22;22480;50.546;12.292;2022-11-20T01:41:23;-8.90;99.90
36458;DHT22;22480;50.546;12.292;2022-11-20T01:44:11;-9.00;99.90
36458;DHT22;22480;50.546;12.292;2022-11-20T01:46:38;-8.90;99.90
36458;DHT22;22480;50.546;12.292;2022-11-20T01:49:14;-9.00;99.90
36458;DHT22;22480;50.546;12.292;2022-11-20T01:51:49;-9.00;99.90
36458;DHT22;22480;50.546;12.292;2022-11-20T01:54:19;-8.90;99.90
36458;DHT22;22480;50.546;12.292;2022-11-20T01:56:46;-9.00;99.90
36458;DHT22;22480;50.546;12.292;2022-11-20T01:59:15;-9.10;99.90
36458;DHT22;22480;50.546;12.292;2022-11-20T02:01:41;-9.20;99.90
36458;DHT22;22480;50.546;12.292;2022-11-20T02:04:08;-9.20;99.90
36458;DHT22;22480;50.546;12.292;2022-11-20T02:06:43;-9.20;99.90
36458;DHT22;22480;50.546;12.292;2022-11-20T02:09:09;-9.20;99.90
36458;DHT22;22480;50.546;12.292;2022-11-20T02:11:35;-9.20;99.90
36458;DHT22;22480;50.546;12.292;2022-11-20T02:14:01;-9.20;99.90
36458;DHT22;22480;50.546;12.292;2022-11-20T02:16:46;-9.20;99.90
36458;DHT22;22480;50.546;12.292;2022-11-20T02:19:27;-9.30;99.90
36458;DHT22;22480;50.546;12.292;2022-11-20T02:22:17;-9.40;99.90
36458;DHT22;22480;50.546;12.292;2022-11-20T02:24:45;-9.50;99.90
36458;DHT22;22480;50.546;12.292;2022-11-20T02:27:15;-9.40;99.90
36458;DHT22;22480;50.546;12.292;2022-11-20T02:29:55;-9.40;99.90
36458;DHT22;22480;50.546;12.292;2022-11-20T02:34:52;-9.40;99.90
36458;DHT22;22480;50.546;12.292;2022-11-20T02:37:18;-9.30;99.90
36458;DHT22;22480;50.546;12.292;2022-11-20T02:39:46;-9.40;99.90
36458;DHT22;22480;50.546;12.292;2022-11-20T02:42:13;-9.20;99.90
36458;DHT22;22480;50.546;12.292;2022-11-20T02:44:38;-9.00;99.90
36458;DHT22;22480;50.546;12.292;2022-11-20T02:47:04;-8.70;99.90
36458;DHT22;22480;50.546;12.292;2022-11-20T02:49:30;-8.20;99.90
36458;DHT22;22480;50.546;12.292;2022-11-20T02:51:56;-7.90;99.90
36458;DHT22;22480;50.546;12.292;2022-11-20T02:54:22;-7.60;99.90
36458;DHT22;22480;50.546;12.292;2022-11-20T02:56:48;-7.40;99.90
36458;DHT22;22480;50.546;12.292;2022-11-20T02:59:13;-7.20;99.90
36458;DHT22;22480;50.546;12.292;2022-11-20T03:01:39;-6.90;99.90
36458;DHT22;22480;50.546;12.292;2022-11-20T03:04:05;-6.60;99.90
36458;DHT22;22480;50.546;12.292;2022-11-20T03:06:31;-6.40;99.90
36458;DHT22;22480;50.546;12.292;2022-11-20T03:08:57;-6.30;99.90
36458;DHT22;22480;50.546;12.292;2022-11-20T03:11:22;-6.20;99.90
36458;DHT22;22480;50.546;12.292;2022-11-20T03:13:48;-6.00;99.90
36458;DHT22;22480;50.546;12.292;2022-11-20T03:16:17;-6.00;99.90
36458;DHT22;22480;50.546;12.292;2022-11-20T03:18:43;-5.90;99.90
36458;DHT22;22480;50.546;12.292;2022-11-20T03:21:10;-5.80;99.90
36458;DHT22;22480;50.546;12.292;2022-11-20T03:23:38;-5.70;99.90
36458;DHT22;22480;50.546;12.292;2022-11-20T03:26:23;-5.50;99.90
36458;DHT22;22480;50.546;12.292;2022-11-20T03:28:52;-5.40;99.90
36458;DHT22;22480;50.546;12.292;2022-11-20T03:31:21;-5.30;99.90
36458;DHT22;22480;50.546;12.292;2022-11-20T03:33:47;-5.20;99.90
36458;DHT22;22480;50.546;12.292;2022-11-20T03:36:15;-5.20;99.90
36458;DHT22;22480;50.546;12.292;2022-11-20T03:38:42;-5.00;99.90
36458;DHT22;22480;50.546;12.292;2022-11-20T03:41:11;-4.90;99.90
36458;DHT22;22480;50.546;12.292;2022-11-20T03:43:37;-4.80;99.90
36458;DHT22;22480;50.546;12.292;2022-11-20T03:46:03;-4.70;99.90
36458;DHT22;22480;50.546;12.292;2022-11-20T03:48:29;-4.70;99.90
36458;DHT22;22480;50.546;12.292;2022-11-20T03:51:12;-4.70;99.90
36458;DHT22;22480;50.546;12.292;2022-11-20T03:53:40;-4.60;99.90
36458;DHT22;22480;50.546;12.292;2022-11-20T03:56:07;-4.60;99.90
36458;DHT22;22480;50.546;12.292;2022-11-20T03:58:37;-4.60;99.90
36458;DHT22;22480;50.546;12.292;2022-11-20T04:01:14;-4.60;99.90
36458;DHT22;22480;50.546;12.292;2022-11-20T04:03:42;-4.50;99.90
36458;DHT22;22480;50.546;12.292;2022-11-20T04:06:11;-4.40;99.90
36458;DHT22;22480;50.546;12.292;2022-11-20T04:08:37;-4.40;99.90
36458;DHT22;22480;50.546;12.292;2022-11-20T04:13:34;-4.40;99.90
36458;DHT22;22480;50.546;12.292;2022-11-20T04:16:00;-4.20;99.90
36458;DHT22;22480;50.546;12.292;2022-11-20T04:18:26;-4.20;99.90
36458;DHT22;22480;50.546;12.292;2022-11-20T04:20:51;-4.20;99.90
36458;DHT22;22480;50.546;12.292;2022-11-20T04:23:17;-4.20;99.90
36458;DHT22;22480;50.546;12.292;2022-11-20T04:25:43;-4.20;99.90
36458;DHT22;22480;50.546;12.292;2022-11-20T04:28:09;-4.20;99.90
36458;DHT22;22480;50.546;12.292;2022-11-20T04:30:35;-4.30;99.90
36458;DHT22;22480;50.546;12.292;2022-11-20T04:33:01;-4.30;99.90
36458;DHT22;22480;50.546;12.292;2022-11-20T04:35:26;-4.30;99.90
36458;DHT22;22480;50.546;12.292;2022-11-20T04:37:52;-4.30;99.90
36458;DHT22;22480;50.546;12.292;2022-11-20T04:40:18;-4.30;99.90
36458;DHT22;22480;50.546;12.292;2022-11-20T04:42:43;-4.20;99.90
36458;DHT22;22480;50.546;12.292;2022-11-20T04:45:09;-4.20;99.90
36458;DHT22;22480;50.546;12.292;2022-11-20T04:47:35;-4.10;99.90
36458;DHT22;22480;50.546;12.292;2022-11-20T04:50:01;-4.10;99.90
36458;DHT22;22480;50.546;12.292;2022-11-20T04:52:27;-4.10;99.90
36458;DHT22;22480;50.546;12.292;2022-11-20T04:54:52;-4.00;99.90
36458;DHT22;22480;50.546;12.292;2022-11-20T04:57:19;-4.00;99.90
36458;DHT22;22480;50.546;12.292;2022-11-20T04:59:44;-4.00;99.90
36458;DHT22;22480;50.546;12.292;2022-11-20T05:02:10;-4.00;99.90
36458;DHT22;22480;50.546;12.292;2022-11-20T05:04:36;-4.00;99.90
36458;DHT22;22480;50.546;12.292;2022-11-20T05:07:02;-4.10;99.90
36458;DHT22;22480;50.546;12.292;2022-11-20T05:09:28;-4.20;99.90
36458;DHT22;22480;50.546;12.292;2022-11-20T05:11:53;-4.10;99.90
36458;DHT22;22480;50.546;12.292;2022-11-20T05:14:19;-4.10;99.90
36458;DHT22;22480;50.546;12.292;2022-11-20T05:16:45;-4.10;99.90
36458;DHT22;22480;50.546;12.292;2022-11-20T05:19:11;-4.10;99.90
36458;DHT22;22480;50.546;12.292;2022-11-20T05:21:36;-4.00;99.90
36458;DHT22;22480;50.546;12.292;2022-11-20T05:24:02;-4.00;99.90
36458;DHT22;22480;50.546;12.292;2022-11-20T05:26:28;-3.90;99.90
36458;DHT22;22480;50.546;12.292;2022-11-20T05:28:54;-4.00;99.90
36458;DHT22;22480;50.546;12.292;2022-11-20T05:31:21;-3.90;99.90
36458;DHT22;22480;50.546;12.292;2022-11-20T05:33:47;-4.00;99.90
36458;DHT22;22480;50.546;12.292;2022-11-20T05:36:14;-4.10;99.90
36458;DHT22;22480;50.546;12.292;2022-11-20T05:38:41;-4.20;99.90
36458;DHT22;22480;50.546;12.292;2022-11-20T05:41:08;-4.20;99.90
36458;DHT22;22480;50.546;12.292;2022-11-20T05:43:36;-4.30;99.90
36458;DHT22;22480;50.546;12.292;2022-11-20T05:46:03;-4.50;99.90
36458;DHT22;22480;50.546;12.292;2022-11-20T05:48:29;-4.40;99.90
36458;DHT22;22480;50.546;12.292;2022-11-20T05:50:57;-4.40;99.90
36458;DHT22;22480;50.546;12.292;2022-11-20T05:53:24;-4.40;99.90
36458;DHT22;22480;50.546;12.292;2022-11-20T05:56:04;-4.40;99.90
36458;DHT22;22480;50.546;12.292;2022-11-20T05:58:31;-4.30;99.90
36458;DHT22;22480;50.546;12.292;2022-11-20T06:03:34;-4.00;99.90
36458;DHT22;22480;50.546;12.292;2022-11-20T06:06:01;-3.90;99.90
36458;DHT22;22480;50.546;12.292;2022-11-20T06:08:27;-3.90;99.90
36458;DHT22;22480;50.546;12.292;2022-11-20T06:10:53;-3.70;99.90
36458;DHT22;22480;50.546;12.292;2022-11-20T06:13:18;-3.60;99.90
36458;DHT22;22480;50.546;12.292;2022-11-20T06:15:52;-3.50;99.90
36458;DHT22;22480;50.546;12.292;2022-11-20T06:18:18;-3.50;99.90
36458;DHT22;22480;50.546;12.292;2022-11-20T06:20:45;-3.40;99.90
36458;DHT22;22480;50.546;12.292;2022-11-20T06:23:11;-3.40;99.90
36458;DHT22;22480;50.546;12.292;2022-11-20T06:25:40;-3.30;99.90
36458;DHT22;22480;50.546;12.292;2022-11-20T06:28:07;-3.20;99.90
36458;DHT22;22480;50.546;12.292;2022-11-20T06:30:33;-3.20;99.90
36458;DHT22;22480;50.546;12.292;2022-11-20T06:32:58;-3.20;99.90
36458;DHT22;22480;50.546;12.292;2022-11-20T06:35:24;-3.10;99.90
36458;DHT22;22480;50.546;12.292;2022-11-20T06:37:50;-3.00;99.90
36458;DHT22;22480;50.546;12.292;2022-11-20T06:40:16;-3.10;99.90
36458;DHT22;22480;50.546;12.292;2022-11-20T06:42:41;-3.00;99.90
36458;DHT22;22480;50.546;12.292;2022-11-20T06:45:08;-3.00;99.90
36458;DHT22;22480;50.546;12.292;2022-11-20T06:47:34;-2.90;99.90
36458;DHT22;22480;50.546;12.292;2022-11-20T06:50:00;-2.90;99.90
36458;DHT22;22480;50.546;12.292;2022-11-20T06:52:25;-2.80;99.90
36458;DHT22;22480;50.546;12.292;2022-11-20T06:54:51;-2.70;99.90
36458;DHT22;22480;50.546;12.292;2022-11-20T06:57:17;-2.70;99.90
36458;DHT22;22480;50.546;12.292;2022-11-20T06:59:42;-2.70;99.90
36458;DHT22;22480;50.546;12.292;2022-11-20T07:02:11;-2.70;99.90
36458;DHT22;22480;50.546;12.292;2022-11-20T07:04:38;-2.60;99.90
36458;DHT22;22480;50.546;12.292;2022-11-20T07:07:04;-2.50;99.90
36458;DHT22;22480;50.546;12.292;2022-11-20T07:09:30;-2.50;99.90
36458;DHT22;22480;50.546;12.292;2022-11-20T07:11:56;-2.40;99.90
36458;DHT22;22480;50.546;12.292;2022-11-20T07:14:21;-2.30;99.90
36458;DHT22;22480;50.546;12.292;2022-11-20T07:16:47;-2.30;99.90
36458;DHT22;22480;50.546;12.292;2022-11-20T07:19:13;-2.30;99.90
36458;DHT22;22480;50.546;12.292;2022-11-20T07:21:39;-2.30;99.90
36458;DHT22;22480;50.546;12.292;2022-11-20T07:24:04;-2.20;99.90
36458;DHT22;22480;50.546;12.292;2022-11-20T07:26:30;-2.10;99.90
36458;DHT22;22480;50.546;12.292;2022-11-20T07:28:56;-2.00;99.90
36458;DHT22;22480;50.546;12.292;2022-11-20T07:31:21;-1.90;99.90
36458;DHT22;22480;50.546;12.292;2022-11-20T07:33:48;-1.90;99.90
36458;DHT22;22480;50.546;12.292;2022-11-20T07:36:13;-1.80;99.90
36458;DHT22;22480;50.546;12.292;2022-11-20T07:38:39;-1.70;99.90
36458;DHT22;22480;50.546;12.292;2022-11-20T07:41:05;-1.70;99.90
36458;DHT22;22480;50.546;12.292;2022-11-20T07:43:31;-1.70;99.90
36458;DHT22;22480;50.546;12.292;2022-11-20T07:45:57;-1.70;99.90
36458;DHT22;22480;50.546;12.292;2022-11-20T07:48:24;-1.60;99.90
36458;DHT22;22480;50.546;12.292;2022-11-20T07:50:54;-1.60;99.90
36458;DHT22;22480;50.546;12.292;2022-11-20T07:53:20;-1.50;99.90
36458;DHT22;22480;50.546;12.292;2022-11-20T07:55:47;-1.40;99.90
36458;DHT22;22480;50.546;12.292;2022-11-20T07:58:13;-1.50;99.90
36458;DHT22;22480;50.546;12.292;2022-11-20T08:00:40;-1.40;99.90
36458;DHT22;22480;50.546;12.292;2022-11-20T08:03:06;-1.40;99.90
36458;DHT22;22480;50.546;12.292;2022-11-20T08:05:32;-1.40;99.90
36458;DHT22;22480;50.546;12.292;2022-11-20T08:07:58;-1.30;99.90
36458;DHT22;22480;50.546;12.292;2022-11-20T08:10:24;-1.40;99.90
36458;DHT22;22480;50.546;12.292;2022-11-20T08:12:51;-1.30;99.90
36458;DHT22;22480;50.546;12.292;2022-11-20T08:15:39;-1.30;99.90
36458;DHT22;22480;50.546;12.292;2022-11-20T08:18:07;-1.30;99.90
36458;DHT22;22480;50.546;12.292;2022-11-20T08:20:34;-1.20;99.90
36458;DHT22;22480;50.546;12.292;2022-11-20T08:23:01;-1.20;99.90
36458;DHT22;22480;50.546;12.292;2022-11-20T08:25:29;-1.10;99.90
36458;DHT22;22480;50.546;12.292;2022-11-20T08:28:00;-1.10;99.90
36458;DHT22;22480;50.546;12.292;2022-11-20T08:30:27;-1.10;99.90
36458;DHT22;22480;50.546;12.292;2022-11-20T08:32:53;-1.00;99.90
36458;DHT22;22480;50.546;12.292;2022-11-20T08:35:20;-0.90;99.90
36458;DHT22;22480;50.546;12.292;2022-11-20T08:37:47;-0.60;99.90
36458;DHT22;22480;50.546;12.292;2022-11-20T08:40:13;-0.60;99.90
36458;DHT22;22480;50.546;12.292;2022-11-20T08:42:49;-0.40;99.90
36458;DHT22;22480;50.546;12.292;2022-11-20T08:45:16;-0.30;99.90
36458;DHT22;22480;50.546;12.292;2022-11-20T08:47:43;-0.20;99.90
36458;DHT22;22480;50.546;12.292;2022-11-20T08:50:10;-0.10;99.90
36458;DHT22;22480;50.546;12.292;2022-11-20T08:52:36;-0.10;99.90
36458;DHT22;22480;50.546;12.292;2022-11-20T08:55:03;-0.10;99.90
36458;DHT22;22480;50.546;12.292;2022-11-20T08:57:35;-0.20;99.90
36458;DHT22;22480;50.546;12.292;2022-11-20T09:00:03;-0.20;99.90
36458;DHT22;22480;50.546;12.292;2022-11-20T09:02:29;-0.30;99.90
36458;DHT22;22480;50.546;12.292;2022-11-20T09:04:54;-0.30;99.90
36458;DHT22;22480;50.546;12.292;2022-11-20T09:07:20;-0.20;99.90
36458;DHT22;22480;50.546;12.292;2022-11-20T09:09:46;-0.20;99.90
36458;DHT22;22480;50.546;12.292;2022-11-20T09:12:12;-0.20;99.90
36458;DHT22;22480;50.546;12.292;2022-11-20T09:14:37;-0.10;99.90
36458;DHT22;22480;50.546;12.292;2022-11-20T09:17:03;-0.20;99.90
36458;DHT22;22480;50.546;12.292;2022-11-20T09:19:29;-0.20;99.90
36458;DHT22;22480;50.546;12.292;2022-11-20T09:21:54;-0.30;99.90
36458;DHT22;22480;50.546;12.292;2022-11-20T09:24:20;-0.30;99.90
36458;DHT22;22480;50.546;12.292;2022-11-20T09:26:46;-0.20;99.90
36458;DHT22;22480;50.546;12.292;2022-11-20T09:29:12;-0.10;99.90
36458;DHT22;22480;50.546;12.292;2022-11-20T09:31:38;-0.10;99.90
36458;DHT22;22480;50.546;12.292;2022-11-20T09:34:03;-0.10;99.90
36458;DHT22;22480;50.546;12.292;2022-11-20T09:36:29;-0.10;99.90
36458;DHT22;22480;50.546;12.292;2022-11-20T09:38:55;-0.10;99.90
36458;DHT22;22480;50.546;12.292;2022-11-20T09:44:23;-0.10;99.90
36458;DHT22;22480;50.546;12.292;2022-11-20T09:55:08;0.20;99.90
36458;DHT22;22480;50.546;12.292;2022-11-20T09:57:37;0.20;99.90
36458;DHT22;22480;50.546;12.292;2022-11-20T10:00:06;0.20;99.90
36458;DHT22;22480;50.546;12.292;2022-11-20T10:05:31;0.30;99.90
36458;DHT22;22480;50.546;12.292;2022-11-20T10:13:23;0.40;99.90
36458;DHT22;22480;50.546;12.292;2022-11-20T10:19:30;0.20;99.90
36458;DHT22;22480;50.546;12.292;2022-11-20T10:24:48;0.30;99.90
36458;DHT22;22480;50.546;12.292;2022-11-20T10:30:17;0.30;99.90
36458;DHT22;22480;50.546;12.292;2022-11-20T10:32:49;0.20;99.90
36458;DHT22;22480;50.546;12.292;2022-11-20T10:36:04;0.30;99.90
36458;DHT22;22480;50.546;12.292;2022-11-20T10:38:36;0.40;99.90
36458;DHT22;22480;50.546;12.292;2022-11-20T10:41:03;0.50;99.90
36458;DHT22;22480;50.546;12.292;2022-11-20T10:43:50;0.50;99.90
36458;DHT22;22480;50.546;12.292;2022-11-20T10:46:20;0.50;99.90
36458;DHT22;22480;50.546;12.292;2022-11-20T10:48:48;0.60;99.90
36458;DHT22;22480;50.546;12.292;2022-11-20T10:53:58;0.80;99.90
36458;DHT22;22480;50.546;12.292;2022-11-20T10:56:40;0.90;99.90
36458;DHT22;22480;50.546;12.292;2022-11-20T10:59:24;0.90;99.90
36458;DHT22;22480;50.546;12.292;2022-11-20T11:01:52;1.00;99.90
36458;DHT22;22480;50.546;12.292;2022-11-20T11:04:37;1.00;99.90
36458;DHT22;22480;50.546;12.292;2022-11-20T11:09:38;1.00;99.90
36458;DHT22;22480;50.546;12.292;2022-11-20T11:12:09;0.90;99.90
36458;DHT22;22480;50.546;12.292;2022-11-20T11:14:46;0.90;99.90
36458;DHT22;22480;50.546;12.292;2022-11-20T11:17:24;0.80;99.90
36458;DHT22;22480;50.546;12.292;2022-11-20T11:20:06;0.80;99.90
36458;DHT22;22480;50.546;12.292;2022-11-20T11:22:52;0.70;99.90
36458;DHT22;22480;50.546;12.292;2022-11-20T11:25:28;0.70;99.90
36458;DHT22;22480;50.546;12.292;2022-11-20T11:28:00;0.70;99.90
36458;DHT22;22480;50.546;12.292;2022-11-20T11:30:27;0.80;99.90
36458;DHT22;22480;50.546;12.292;2022-11-20T11:33:09;0.80;99.90
36458;DHT22;22480;50.546;12.292;2022-11-20T11:35:43;0.80;99.90
36458;DHT22;22480;50.546;12.292;2022-11-20T11:38:16;0.70;99.90
36458;DHT22;22480;50.546;12.292;2022-11-20T11:40:45;0.80;99.90
36458;DHT22;22480;50.546;12.292;2022-11-20T11:43:20;0.80;99.90
36458;DHT22;22480;50.546;12.292;2022-11-20T11:46:25;0.80;99.90
36458;DHT22;22480;50.546;12.292;2022-11-20T11:52:02;0.80;99.90
36458;DHT22;22480;50.546;12.292;2022-11-20T11:56:54;0.80;99.90
36458;DHT22;22480;50.546;12.292;2022-11-20T11:59:44;0.90;99.90
36458;DHT22;22480;50.546;12.292;2022-11-20T12:02:28;0.90;99.90
36458;DHT22;22480;50.546;12.292;2022-11-20T12:05:09;1.00;99.90
36458;DHT22;22480;50.546;12.292;2022-11-20T12:07:41;0.90;99.90
36458;DHT22;22480;50.546;12.292;2022-11-20T12:13:11;0.90;99.90
36458;DHT22;22480;50.546;12.292;2022-11-20T12:15:43;1.00;99.90
36458;DHT22;22480;50.546;12.292;2022-11-20T12:18:15;0.90;99.90
36458;DHT22;22480;50.546;12.292;2022-11-20T12:20:45;0.90;99.90
36458;DHT22;22480;50.546;12.292;2022-11-20T12:23:21;1.00;99.90
36458;DHT22;22480;50.546;12.292;2022-11-20T12:25:53;1.10;99.90
36458;DHT22;22480;50.546;12.292;2022-11-20T12:36:28;1.20;99.90
36458;DHT22;22480;50.546;12.292;2022-11-20T12:42:22;1.30;99.90
36458;DHT22;22480;50.546;12.292;2022-11-20T12:50:35;1.70;99.90
36458;DHT22;22480;50.546;12.292;2022-11-20T12:53:08;1.70;99.90
36458;DHT22;22480;50.546;12.292;2022-11-20T12:55:42;1.70;99.90
36458;DHT22;22480;50.546;12.292;2022-11-20T13:01:40;1.80;99.90
36458;DHT22;22480;50.546;12.292;2022-11-20T13:06:39;1.80;99.90
36458;DHT22;22480;50.546;12.292;2022-11-20T13:09:12;1.90;99.90
36458;DHT22;22480;50.546;12.292;2022-11-20T13:14:57;1.90;99.90
36458;DHT22;22480;50.546;12.292;2022-11-20T13:17:36;1.80;99.90
36458;DHT22;22480;50.546;12.292;2022-11-20T13:20:06;1.70;99.90
36458;DHT22;22480;50.546;12.292;2022-11-20T13:22:47;1.60;99.90
36458;DHT22;22480;50.546;12.292;2022-11-20T13:25:33;1.60;99.90
36458;DHT22;22480;50.546;12.292;2022-11-20T13:28:03;1.60;99.90
36458;DHT22;22480;50.546;12.292;2022-11-20T13:30:30;1.60;99.90
36458;DHT22;22480;50.546;12.292;2022-11-20T13:33:06;1.60;99.90
36458;DHT22;22480;50.546;12.292;2022-11-20T13:35:36;1.40;99.90
36458;DHT22;22480;50.546;12.292;2022-11-20T13:38:12;1.50;99.90
36458;DHT22;22480;50.546;12.292;2022-11-20T13:41:22;1.50;99.90
36458;DHT22;22480;50.546;12.292;2022-11-20T13:43:52;1.40;99.90
36458;DHT22;22480;50.546;12.292;2022-11-20T13:46:18;1.30;99.90
36458;DHT22;22480;50.546;12.292;2022-11-20T13:48:50;1.30;99.90
36458;DHT22;22480;50.546;12.292;2022-11-20T13:51:34;1.20;99.90
36458;DHT22;22480;50.546;12.292;2022-11-20T13:57:21;1.30;99.90
36458;DHT22;22480;50.546;12.292;2022-11-20T14:00:17;1.20;99.90
36458;DHT22;22480;50.546;12.292;2022-11-20T14:02:44;1.30;99.90
36458;DHT22;22480;50.546;12.292;2022-11-20T14:05:22;1.20;99.90
36458;DHT22;22480;50.546;12.292;2022-11-20T14:07:50;1.20;99.90
36458;DHT22;22480;50.546;12.292;2022-11-20T14:10:22;1.20;99.90
36458;DHT22;22480;50.546;12.292;2022-11-20T14:12:48;1.20;99.90
36458;DHT22;22480;50.546;12.292;2022-11-20T14:15:29;1.20;99.90
36458;DHT22;22480;50.546;12.292;2022-11-20T14:17:56;1.20;99.90
36458;DHT22;22480;50.546;12.292;2022-11-20T14:20:25;1.10;99.90
36458;DHT22;22480;50.546;12.292;2022-11-20T14:22:53;1.10;99.90
36458;DHT22;22480;50.546;12.292;2022-11-20T14:25:25;1.10;99.90
36458;DHT22;22480;50.546;12.292;2022-11-20T14:28:00;1.10;99.90
36458;DHT22;22480;50.546;12.292;2022-11-20T14:30:40;1.10;99.90
36458;DHT22;22480;50.546;12.292;2022-11-20T14:33:11;1.10;99.90
36458;DHT22;22480;50.546;12.292;2022-11-20T14:35:44;1.10;99.90
36458;DHT22;22480;50.546;12.292;2022-11-20T14:38:13;1.10;99.90
36458;DHT22;22480;50.546;12.292;2022-11-20T14:40:39;1.10;99.90
36458;DHT22;22480;50.546;12.292;2022-11-20T14:43:26;1.10;99.90
36458;DHT22;22480;50.546;12.292;2022-11-20T14:45:59;1.00;99.90
36458;DHT22;22480;50.546;12.292;2022-11-20T14:48:55;1.00;99.90
36458;DHT22;22480;50.546;12.292;2022-11-20T14:51:33;1.00;99.90
36458;DHT22;22480;50.546;12.292;2022-11-20T14:54:20;0.90;99.90
36458;DHT22;22480;50.546;12.292;2022-11-20T14:57:00;0.90;99.90
36458;DHT22;22480;50.546;12.292;2022-11-20T14:59:32;0.80;99.90
36458;DHT22;22480;50.546;12.292;2022-11-20T15:02:04;0.80;99.90
36458;DHT22;22480;50.546;12.292;2022-11-20T15:04:30;0.80;99.90
36458;DHT22;22480;50.546;12.292;2022-11-20T15:06:58;0.80;99.90
36458;DHT22;22480;50.546;12.292;2022-11-20T15:09:24;0.80;99.90
36458;DHT22;22480;50.546;12.292;2022-11-20T15:11:58;0.80;99.90
36458;DHT22;22480;50.546;12.292;2022-11-20T15:14:26;0.80;99.90
36458;DHT22;22480;50.546;12.292;2022-11-20T15:16:53;0.80;99.90
36458;DHT22;22480;50.546;12.292;2022-11-20T15:19:21;0.80;99.90
36458;DHT22;22480;50.546;12.292;2022-11-20T15:21:47;0.70;99.90
36458;DHT22;22480;50.546;12.292;2022-11-20T15:24:13;0.70;99.90
36458;DHT22;22480;50.546;12.292;2022-11-20T15:26:39;0.70;99.90
36458;DHT22;22480;50.546;12.292;2022-11-20T15:29:09;0.60;99.90
36458;DHT22;22480;50.546;12.292;2022-11-20T15:31:36;0.60;99.90
36458;DHT22;22480;50.546;12.292;2022-11-20T15:34:04;0.60;99.90
36458;DHT22;22480;50.546;12.292;2022-11-20T15:36:32;0.60;99.90
36458;DHT22;22480;50.546;12.292;2022-11-20T15:38:57;0.60;99.90
36458;DHT22;22480;50.546;12.292;2022-11-20T15:41:23;0.50;99.90
36458;DHT22;22480;50.546;12.292;2022-11-20T15:43:49;0.50;99.90
36458;DHT22;22480;50.546;12.292;2022-11-20T15:46:17;0.50;99.90
36458;DHT22;22480;50.546;12.292;2022-11-20T15:48:53;0.50;99.90
36458;DHT22;22480;50.546;12.292;2022-11-20T15:53:51;0.50;99.90
36458;DHT22;22480;50.546;12.292;2022-11-20T15:56:17;0.50;99.90
36458;DHT22;22480;50.546;12.292;2022-11-20T15:58:42;0.50;99.90
36458;DHT22;22480;50.546;12.292;2022-11-20T16:01:10;0.50;99.90
36458;DHT22;22480;50.546;12.292;2022-11-20T16:03:37;0.40;99.90
36458;DHT22;22480;50.546;12.292;2022-11-20T16:06:03;0.40;99.90
36458;DHT22;22480;50.546;12.292;2022-11-20T16:08:28;0.40;99.90
36458;DHT22;22480;50.546;12.292;2022-11-20T16:10:54;0.40;99.90
36458;DHT22;22480;50.546;12.292;2022-11-20T16:13:20;0.30;99.90
36458;DHT22;22480;50.546;12.292;2022-11-20T16:16:07;0.30;99.90
36458;DHT22;22480;50.546;12.292;2022-11-20T16:18:34;0.20;99.90
36458;DHT22;22480;50.546;12.292;2022-11-20T16:21:00;0.20;99.90
36458;DHT22;22480;50.546;12.292;2022-11-20T16:23:26;0.30;99.90
36458;DHT22;22480;50.546;12.292;2022-11-20T16:25:52;0.20;99.90
36458;DHT22;22480;50.546;12.292;2022-11-20T16:28:18;0.20;99.90
36458;DHT22;22480;50.546;12.292;2022-11-20T16:30:43;0.10;99.90
36458;DHT22;22480;50.546;12.292;2022-11-20T16:33:12;0.00;99.90
36458;DHT22;22480;50.546;12.292;2022-11-20T16:35:38;-0.10;99.90
36458;DHT22;22480;50.546;12.292;2022-11-20T16:38:03;-0.10;99.90
36458;DHT22;22480;50.546;12.292;2022-11-20T16:40:29;-0.30;99.90
36458;DHT22;22480;50.546;12.292;2022-11-20T16:42:55;-0.50;99.90
36458;DHT22;22480;50.546;12.292;2022-11-20T16:45:23;-0.60;99.90
36458;DHT22;22480;50.546;12.292;2022-11-20T16:47:49;-0.80;99.90
36458;DHT22;22480;50.546;12.292;2022-11-20T16:50:15;-0.80;99.90
36458;DHT22;22480;50.546;12.292;2022-11-20T16:52:40;-0.90;99.90
36458;DHT22;22480;50.546;12.292;2022-11-20T16:55:07;-1.10;99.90